Terminal Aerodrome Forecast
Issued by NWS Cleveland, OH

Home | Current Version | Previous Version | Graphics & Text | Print | Product List | Glossary On
Versions: 1 2 3 4 5 6 7 8 9 10 11 12 13 14 15 16 17 18 19 20 21
000
FTUS41 KCLE 281126
TAFERI
TAF
KERI 281126Z 2812/2912 04006KT 3SM -RA BR OVC025
     FM281400 35012KT 2SM -RA BR OVC008
     FM290000 29007KT P6SM VCSH OVC015
     FM290900 24005KT P6SM SCT250=

USA.gov is the U.S. government's official web portal to all federal, state and local government web resources and services.